Datto, AR (72424)

10:34 PM CDT on August 22, 2014 (GMT -0500)
Biggers | Change Station
CLOSE
Current Station
Personal Weather Station
Location: Biggers, AR
Elevation: 285 ft
Nearby Weather Stations

Elev 285 ft 36.33 °N, 90.81 °W | Updated 34 seconds ago

Clear
Clear
81.7 °F
Feels Like 89 °F
N
2.7
Wind Variable Wind from South

Today
High -- | Low -- °F
--% Chance of Precip.
Yesterday
High -- | Low -- °F
Precip. -- in
6:26 AM 7:44 PM
Waning Crescent, 5% visible
Pressure 29.97 in
Visibility 7.0 miles
Clouds Clear
Heat Index 89 °F
Dew Point 76 °F
Humidity 84%
Rainfall 0.00 in
Snow Depth Not available.
UV 0 out of 12
Pollen 10.90 out of 12
Air Quality Not available.
Flu Activity Not available.
METAR K4M9 230315Z AUTO 21009KT 7SM CLR 28/24 A2997 RMK AO2

More Conditions Fewer Conditions

Pressure 29.97 in
Visibility 7.0 miles
Clouds Clear
Heat Index 89 °F
Dew Point 76 °F
Humidity 84%
Rainfall 0.00 in
Snow Depth Not available.
UV 0 out of 12
Pollen 10.90 out of 12
Air Quality Not available.
Flu Activity Not available.
METAR K4M9 230315Z AUTO 21009KT 7SM CLR 28/24 A2997 RMK AO2

More Conditions Fewer Conditions

10-Day Weather Forecast

Almanac

Astronomy

Aug. 22, 2014 Rise Set
Actual Time 6:26 AM CDT 7:44 PM CDT
Civil Twilight 5:59 AM CDT 8:11 PM CDT
Nautical Twilight 5:27 AM CDT 8:43 PM CDT
Astronomical Twilight 4:53 AM CDT 9:16 PM CDT
Moon 3:51 AM CDT (8/22) 5:51 PM CDT (8/22)
Length of Visible Light 14h 11m
Length of Day
13h 18m
Tomorrow will be 2m 7s shorter.
Waning Crescent, 5% of the Moon is Illuminated
Today
Waning Crescent
Aug 25
New
Sep 2
First Quarter
Sep 8
Full
Sep 15
Last Quarter

Today's Extremes

State Highs State Lows

Community

WunderPhotos

Upload Photos

1,746,352 photos uploaded!

WunderBlogs® & News

Nearby

Snow Depth

Station Depth Elevation
No new snow has been reported.

Earthquake Activity

City Distance Mag. Time & Date
No recent earthquake activity has been reported nearby.
Minimum magnitude displayed is 2.5.

Coastal Water Temperatures

Place Temperature
No Stations Reporting

Nearby Weather Stations